Time;durP1;ratioP1;P1;durP2;ratioP2;P2;SDS_P1;SDS_P2;PMS_P1;PMS_P2;Temp;Humidity;BMP_temperature;BMP_pressure;BME280_temperature;BME280_humidity;BME280_pressure;Samples;Min_cycle;Max_cycle;Signal;HPM_P1;HPM_P2
2022/02/04 00:21:30;;;;;;;24.02;10.68;;;;;;;5.62;57.98;99758.53;4965719;28;19948;-70
2022/02/04 00:24:00;;;;;;;23.13;10.23;;;;;;;5.59;58.12;99756.13;4968052;28;20090;-72
2022/02/04 00:26:28;;;;;;;19.90;11.70;;;;;;;5.58;58.24;99762.28;4966670;28;20434;-71
2022/02/04 00:29:04;;;;;;;26.08;12.13;;;;;;;5.55;58.38;99753.66;4964942;28;20051;-72
2022/02/04 00:31:36;;;;;;;25.52;12.35;;;;;;;5.59;58.58;99753.50;4965661;28;20522;-70
2022/02/04 00:34:07;;;;;;;27.45;12.13;;;;;;;5.56;58.71;99751.88;5028277;28;20061;-70
2022/02/04 00:36:41;;;;;;;24.40;13.38;;;;;;;5.55;58.65;99745.81;5042933;28;20489;-69
2022/02/04 00:39:12;;;;;;;22.25;11.52;;;;;;;5.57;58.62;99748.34;5069002;28;20043;-69
2022/02/04 00:41:41;;;;;;;23.92;12.75;;;;;;;5.57;58.73;99745.72;5107466;28;20059;-69
2022/02/04 00:44:17;;;;;;;23.05;11.95;;;;;;;5.59;58.63;99741.22;5106671;28;20527;-70
2022/02/04 00:46:56;;;;;;;;;;;;;;;5.83;58.11;99731.03;5107190;28;20084;-69
2022/02/04 00:49:32;;;;;;;27.23;13.65;;;;;;;5.60;58.47;99740.31;5107372;28;19923;-71
2022/02/04 00:52:06;;;;;;;25.52;12.38;;;;;;;5.57;58.84;99735.25;5106968;28;20687;-70
2022/02/04 00:54:44;;;;;;;22.67;12.85;;;;;;;5.53;58.91;99731.97;5107212;28;20044;-71
2022/02/04 00:57:18;;;;;;;23.50;12.60;;;;;;;5.57;58.97;99730.00;5105641;28;20408;-70
2022/02/04 01:25:53;;;;;;;31.52;13.02;;;;;;;5.61;59.29;99717.56;5084138;28;20162;-73
2022/02/04 01:27:26;;;;;;;29.73;12.20;;;;;;;5.64;59.46;99702.50;5082949;28;20194;-73
2022/02/04 01:30:00;;;;;;;23.63;12.55;;;;;;;5.64;59.62;99699.06;5084045;28;20101;-76
2022/02/04 01:32:27;;;;;;;27.13;11.93;;;;;;;5.65;59.64;99698.09;5085669;28;20052;-77
2022/02/04 01:34:56;;;;;;;20.42;11.05;;;;;;;5.66;59.76;99689.31;5083853;28;20130;-76
2022/02/04 01:37:23;;;;;;;26.05;11.15;;;;;;;5.67;59.77;99693.59;5084945;28;20060;-69
2022/02/04 01:39:50;;;;;;;24.85;12.23;;;;;;;5.66;59.81;99698.00;5096058;28;20483;-71
2022/02/04 01:42:18;;;;;;;19.73;10.95;;;;;;;5.67;60.00;99688.34;5107817;28;20058;-72
2022/02/04 01:44:45;;;;;;;23.52;13.95;;;;;;;5.67;60.06;99688.34;5107804;28;20467;-75
2022/02/04 01:47:13;;;;;;;21.30;11.38;;;;;;;5.71;60.01;99684.63;5107782;28;20481;-70
2022/02/04 01:49:40;;;;;;;25.15;9.93;;;;;;;5.75;60.10;99691.38;5108391;28;20123;-75
2022/02/04 01:52:09;;;;;;;25.83;10.57;;;;;;;5.78;60.03;99685.09;5106687;28;20107;-77
2022/02/04 01:54:36;;;;;;;19.25;9.20;;;;;;;5.72;60.07;99684.53;5108693;28;20039;-74
2022/02/04 01:57:04;;;;;;;21.88;10.35;;;;;;;5.71;60.26;99679.41;5108415;28;20053;-74
2022/02/04 01:59:31;;;;;;;20.38;9.85;;;;;;;5.71;60.32;99679.41;5109051;28;20047;-71
2022/02/04 02:01:58;;;;;;;22.30;10.63;;;;;;;5.73;60.34;99674.91;5107809;28;20131;-73
2022/02/04 02:04:25;;;;;;;20.23;10.75;;;;;;;5.75;60.46;99670.41;5107928;28;20039;-76
2022/02/04 02:06:56;;;;;;;18.35;10.25;;;;;;;5.75;60.56;99670.41;5108743;28;20122;-76
2022/02/04 02:09:30;;;;;;;18.95;9.98;;;;;;;5.78;60.61;99672.84;5110287;28;20491;-76
2022/02/04 02:12:01;;;;;;;21.42;10.93;;;;;;;5.80;60.57;99670.97;5111834;28;20531;-76
2022/02/04 02:14:30;;;;;;;21.85;11.40;;;;;;;5.82;60.55;99666.47;5112561;28;20059;-72
2022/02/04 02:33:58;;;;;;;17.55;10.07;;;;;;;5.91;60.71;99675.53;5111176;28;20054;-77
2022/02/04 02:42:16;;;;;;;27.15;11.90;;;;;;;5.92;60.69;99662.34;5070336;28;20407;-72
2022/02/04 02:44:50;;;;;;;22.58;11.45;;;;;;;5.92;60.80;99662.34;5069060;28;20558;-71
2022/02/04 02:47:30;;;;;;;20.95;10.93;;;;;;;5.91;60.88;99658.03;5069374;28;20152;-73
2022/02/04 02:50:37;;;;;;;21.58;11.10;;;;;;;5.92;61.15;99651.00;5068522;28;20100;-70
2022/02/04 02:56:04;;;;;;;21.73;12.55;;;;;;;5.91;61.12;99654.56;5067699;28;20448;-69
2022/02/04 02:58:33;;;;;;;23.15;11.80;;;;;;;5.94;61.06;99656.97;5067482;28;20055;-70
2022/02/04 03:01:03;;;;;;;22.45;13.13;;;;;;;5.92;61.30;99648.38;5067439;28;20516;-71
2022/02/04 03:03:33;;;;;;;23.63;13.18;;;;;;;5.99;61.23;99651.50;5066907;28;20048;-70
2022/02/04 03:06:00;;;;;;;29.50;13.55;;;;;;;5.99;61.57;99654.94;5066686;28;20527;-71
2022/02/04 03:08:28;;;;;;;22.02;12.05;;;;;;;6.01;61.33;99653.06;5065668;28;20213;-70
2022/02/04 03:10:58;;;;;;;21.05;12.80;;;;;;;6.03;61.56;99645.97;5064990;28;20051;-70
2022/02/04 03:13:27;;;;;;;24.83;14.45;;;;;;;6.03;61.56;99648.59;5065405;28;20036;-70
2022/02/04 03:15:59;;;;;;;21.80;13.13;;;;;;;6.05;61.35;99640.59;5077127;28;20058;-71
2022/02/04 03:18:29;;;;;;;28.00;13.55;;;;;;;6.06;61.53;99647.53;5108485;28;20059;-69
2022/02/04 03:21:01;;;;;;;23.75;13.30;;;;;;;6.07;61.39;99644.00;5109048;28;20047;-71
2022/02/04 03:23:33;;;;;;;24.05;12.93;;;;;;;6.10;61.38;99643.78;5109162;28;20097;-70
2022/02/04 03:26:08;;;;;;;22.77;14.50;;;;;;;6.12;61.31;99639.28;5108730;28;20083;-70
2022/02/04 03:28:36;;;;;;;20.90;13.30;;;;;;;6.16;61.26;99635.53;5108743;28;20104;-69
2022/02/04 03:31:04;;;;;;;25.35;13.68;;;;;;;6.19;61.28;99639.72;5108977;28;20087;-73
2022/02/04 03:33:33;;;;;;;19.95;12.40;;;;;;;6.18;61.41;99630.19;5108931;28;20094;-70
2022/02/04 03:36:00;;;;;;;17.55;11.90;;;;;;;6.18;61.27;99632.81;5109105;28;20112;-73
2022/02/04 03:38:27;;;;;;;21.05;14.35;;;;;;;6.17;61.43;99629.34;5109226;28;20142;-70
2022/02/04 03:40:54;;;;;;;26.70;12.57;;;;;;;6.15;61.50;99625.97;5106753;28;20407;-69
2022/02/04 03:43:22;;;;;;;24.42;13.20;;;;;;;6.17;61.50;99629.34;5109240;28;20175;-70
2022/02/04 03:45:52;;;;;;;24.70;14.32;;;;;;;6.17;61.68;99626.72;5109427;28;20147;-69
2022/02/04 03:48:19;;;;;;;23.70;13.55;;;;;;;6.18;61.50;99624.97;5109063;28;20062;-69
2022/02/04 03:50:45;;;;;;;19.88;13.23;;;;;;;6.20;61.57;99633.56;5108762;28;20074;-70
2022/02/04 03:53:13;;;;;;;24.77;13.23;;;;;;;6.18;61.49;99625.78;5109187;28;20048;-72
2022/02/04 03:55:41;;;;;;;20.27;13.20;;;;;;;6.18;61.64;99630.19;5109798;28;20131;-72
2022/02/04 03:58:09;;;;;;;23.80;13.30;;;;;;;6.18;61.61;99625.78;5109386;28;20043;-71
2022/02/04 04:00:38;;;;;;;22.83;13.88;;;;;;;6.18;61.69;99636.28;5108138;28;20556;-70
2022/02/04 04:03:06;;;;;;;23.65;13.60;;;;;;;6.21;61.67;99627.34;5107833;28;20044;-69
2022/02/04 04:05:37;;;;;;;24.08;13.50;;;;;;;6.24;61.64;99625.38;5108300;28;20640;-69
2022/02/04 04:08:04;;;;;;;21.77;12.85;;;;;;;6.24;61.58;99620.13;5108488;28;20483;-70
2022/02/04 04:10:38;;;;;;;27.73;14.18;;;;;;;6.25;61.66;99621.84;5107508;28;20093;-72
2022/02/04 04:13:05;;;;;;;22.88;13.43;;;;;;;6.23;61.66;99623.72;5108446;28;20094;-74
2022/02/04 04:15:33;;;;;;;23.30;14.50;;;;;;;6.20;61.77;99618.66;5108881;28;20043;-75
2022/02/04 04:18:02;;;;;;;23.23;12.27;;;;;;;6.19;61.78;99622.22;5109152;28;20135;-73
2022/02/04 04:20:30;;;;;;;22.00;12.70;;;;;;;6.20;61.91;99621.28;5109403;28;20093;-74
2022/02/04 04:22:58;;;;;;;28.88;15.73;;;;;;;6.22;62.03;99627.25;5109447;28;20133;-78
2022/02/04 04:25:26;;;;;;;25.20;14.10;;;;;;;6.27;61.90;99624.34;5109851;28;20059;-74
2022/02/04 04:27:55;;;;;;;29.88;14.25;;;;;;;6.30;61.80;99625.00;5109025;28;20050;-73
2022/02/04 04:30:23;;;;;;;25.30;14.90;;;;;;;6.29;62.13;99625.94;5108782;28;20670;-74
2022/02/04 04:32:51;;;;;;;22.65;15.18;;;;;;;6.28;61.87;99621.63;5108403;28;20067;-77
2022/02/04 04:35:23;;;;;;;21.63;13.73;;;;;;;6.29;61.96;99618.06;5109215;28;20690;-76
2022/02/04 04:37:56;;;;;;;23.35;13.95;;;;;;;6.29;61.84;99611.97;5108959;28;20052;-74
2022/02/04 04:40:42;;;;;;;22.85;14.05;;;;;;;6.29;62.01;99612.81;5107082;28;20392;-72
2022/02/04 04:43:22;;;;;;;25.42;13.75;;;;;;;6.31;61.75;99613.56;5107679;28;20484;-70
2022/02/04 04:46:21;;;;;;;28.67;13.88;;;;;;;6.34;61.63;99614.28;5108187;28;20051;-73
2022/02/04 05:27:55;;;;;;;30.27;17.25;;;;;;;6.40;62.06;99600.78;5107588;28;20411;-73
2022/02/04 05:30:17;;;;;;;27.08;16.73;;;;;;;6.39;62.14;99602.59;5108374;28;20040;-72
2022/02/04 05:32:44;;;;;;;31.05;15.27;;;;;;;6.41;62.23;99599.84;5112348;28;20036;-71
2022/02/04 05:35:12;;;;;;;32.00;17.35;;;;;;;6.39;62.31;99604.34;5114399;28;20043;-71
2022/02/04 05:37:43;;;;;;;34.58;18.40;;;;;;;6.41;62.35;99600.69;5115106;28;20046;-70
2022/02/04 05:40:15;;;;;;;28.08;17.05;;;;;;;6.43;62.53;99604.06;5113954;28;20690;-70
2022/02/04 05:42:49;;;;;;;28.42;17.63;;;;;;;6.45;62.34;99603.97;5113225;28;20125;-71
2022/02/04 05:45:19;;;;;;;33.45;17.80;;;;;;;6.49;62.17;99597.56;5110848;28;20039;-71
2022/02/04 05:47:50;;;;;;;31.17;19.23;;;;;;;6.46;62.36;99597.75;5109754;28;20081;-73
2022/02/04 05:50:23;;;;;;;37.45;19.02;;;;;;;6.47;62.15;99602.91;5107757;28;20459;-71
2022/02/04 05:53:05;;;;;;;33.30;19.38;;;;;;;6.47;62.38;99605.53;5107627;28;20070;-71
2022/02/04 05:55:49;;;;;;;31.63;17.80;;;;;;;6.50;62.35;99609.75;5107431;28;20130;-76
2022/02/04 05:58:30;;;;;;;29.13;18.30;;;;;;;6.47;62.44;99607.31;5106972;28;20472;-76
2022/02/04 06:01:10;;;;;;;35.15;18.85;;;;;;;6.52;62.36;99613.09;5104655;28;20101;-71
2022/02/04 06:03:47;;;;;;;35.67;18.10;;;;;;;6.53;62.26;99609.53;5104936;28;20044;-71
2022/02/04 06:06:42;;;;;;;33.40;18.80;;;;;;;6.53;62.35;99603.44;5106867;28;20058;-72
2022/02/04 06:12:04;;;;;;;30.98;18.42;;;;;;;6.57;62.39;99600.53;5103438;28;20155;-73
2022/02/04 06:14:48;;;;;;;29.63;19.92;;;;;;;6.57;62.41;99610.16;5105732;28;20051;-73
2022/02/04 06:22:45;;;;;;;45.25;22.05;;;;;;;6.64;62.30;99601.78;5111130;28;20108;-72
2022/02/04 06:25:12;;;;;;;40.65;23.60;;;;;;;6.65;62.47;99608.72;5108521;28;20098;-73
2022/02/04 06:27:41;;;;;;;37.10;22.20;;;;;;;6.76;62.26;99615.88;5105875;28;20058;-72
2022/02/04 06:30:08;;;;;;;39.67;21.55;;;;;;;6.79;62.00;99620.06;5105884;28;20138;-72
2022/02/04 06:32:36;;;;;;;41.90;22.48;;;;;;;6.78;62.14;99611.34;5105157;28;20044;-75
2022/02/04 06:35:07;;;;;;;34.85;22.83;;;;;;;6.79;62.11;99609.56;5104004;28;20108;-75
2022/02/04 06:37:34;;;;;;;42.95;21.88;;;;;;;6.78;62.20;99613.16;5103585;28;20758;-74
2022/02/04 06:40:01;;;;;;;37.35;22.08;;;;;;;6.83;62.14;99608.44;5101150;28;20134;-71
2022/02/04 06:42:29;;;;;;;35.03;20.35;;;;;;;6.86;62.02;99606.44;5101131;28;20044;-73
2022/02/04 06:44:58;;;;;;;41.95;20.13;;;;;;;6.88;62.17;99607.19;5101675;28;20075;-70
2022/02/04 06:47:25;;;;;;;37.60;19.95;;;;;;;6.89;61.96;99614.09;5099392;28;20054;-74
2022/02/04 06:49:53;;;;;;;38.47;24.33;;;;;;;6.89;61.87;99614.09;5100788;28;20043;-74
2022/02/04 06:52:20;;;;;;;39.53;24.73;;;;;;;6.89;61.97;99608.00;5100956;28;20134;-73
2022/02/04 06:54:47;;;;;;;44.85;25.52;;;;;;;6.93;62.02;99613.91;5101708;28;20048;-73
2022/02/04 06:57:14;;;;;;;46.20;23.80;;;;;;;6.98;62.06;99609.19;5103078;28;20057;-75
2022/02/04 06:59:43;;;;;;;39.47;22.67;;;;;;;6.95;62.22;99605.00;5104990;27;20067;-71
2022/02/04 07:02:12;;;;;;;40.50;23.85;;;;;;;6.98;62.08;99620.50;5105124;28;20105;-75
2022/02/04 07:04:40;;;;;;;34.47;19.83;;;;;;;6.99;61.97;99611.69;5106905;27;20117;-73
2022/02/04 07:07:07;;;;;;;44.10;26.92;;;;;;;6.99;61.99;99610.88;5106644;28;20111;-72
2022/02/04 07:09:44;;;;;;;40.63;23.88;;;;;;;6.98;61.95;99610.00;5107170;28;20637;-72
2022/02/04 07:12:22;;;;;;;47.55;23.92;;;;;;;6.97;62.18;99613.59;5106659;28;20051;-76
2022/02/04 07:15:20;;;;;;;44.88;24.20;;;;;;;6.96;62.16;99613.69;5113712;28;20455;-73
2022/02/04 07:18:01;;;;;;;40.65;23.50;;;;;;;6.99;62.06;99616.13;5114085;28;20114;-71
2022/02/04 07:20:27;;;;;;;38.50;22.30;;;;;;;6.96;62.15;99611.91;5115017;28;20079;-73
2022/02/04 07:22:55;;;;;;;36.47;21.15;;;;;;;6.94;62.13;99615.59;5118367;28;20077;-73
2022/02/04 07:25:22;;;;;;;36.42;21.05;;;;;;;6.93;62.02;99622.59;5121572;28;20509;-76
2022/02/04 07:27:50;;;;;;;30.48;18.80;;;;;;;6.98;62.05;99624.94;5125548;28;20044;-76
2022/02/04 07:30:17;;;;;;;31.77;17.83;;;;;;;7.00;62.06;99618.63;5124134;28;20063;-73
2022/02/04 07:32:54;;;;;;;31.35;20.55;;;;;;;6.99;62.04;99621.38;5122295;28;20048;-73
2022/02/04 07:41:00;;;;;;;34.22;19.73;;;;;;;7.03;62.07;99615.78;5117284;28;20563;-73
2022/02/04 07:43:28;;;;;;;29.42;16.73;;;;;;;7.01;61.92;99620.31;5119421;28;20075;-75
2022/02/04 07:45:55;;;;;;;35.97;18.15;;;;;;;6.96;62.12;99625.03;5116300;28;20115;-75
2022/02/04 07:48:23;;;;;;;25.98;15.43;;;;;;;6.96;62.08;99626.81;5115373;28;20042;-71
2022/02/04 07:50:52;;;;;;;27.55;16.55;;;;;;;6.96;62.10;99622.41;5118915;28;20298;-74
2022/02/04 07:53:30;;;;;;;26.15;14.73;;;;;;;6.96;62.22;99618.94;5115523;28;20043;-80
2022/02/04 07:55:58;;;;;;;28.20;17.75;;;;;;;7.00;62.10;99616.00;5109117;28;20051;-77
2022/02/04 07:58:29;;;;;;;27.67;17.70;;;;;;;7.06;61.99;99627.88;5109134;28;20048;-79
2022/02/04 08:01:03;;;;;;;26.55;14.55;;;;;;;7.12;61.88;99621.38;5109126;28;20604;-74
2022/02/04 08:03:43;;;;;;;27.77;15.15;;;;;;;7.07;62.00;99617.25;5106640;28;20079;-80
2022/02/04 08:06:21;;;;;;;22.33;14.68;;;;;;;7.08;61.86;99621.56;5112879;28;20039;-78
2022/02/04 08:08:57;;;;;;;27.83;16.23;;;;;;;7.07;61.83;99625.13;5106588;28;20522;-77
2022/02/04 08:11:41;;;;;;;25.50;16.65;;;;;;;7.13;61.79;99631.78;5106518;28;20681;-74
2022/02/04 08:14:18;;;;;;;20.38;13.38;;;;;;;7.26;61.42;99621.28;5107439;28;20040;-78
2022/02/04 08:37:01;;;;;;;26.50;15.38;;;;;;;7.77;60.61;99608.03;4931159;29;20201;-74
2022/02/04 08:51:07;;;;;;;30.40;16.98;;;;;;;7.85;60.68;99602.25;4925818;29;20096;-78
2022/02/04 08:53:58;;;;;;;25.40;16.80;;;;;;;7.89;60.57;99601.09;4923152;29;20071;-75
2022/02/04 08:56:36;;;;;;;28.23;16.67;;;;;;;7.89;60.63;99600.25;4925173;29;20077;-74
2022/02/04 08:59:11;;;;;;;27.20;17.45;;;;;;;7.82;60.68;99600.66;4929637;29;20115;-83
2022/02/04 09:01:45;;;;;;;31.38;18.33;;;;;;;7.83;60.64;99591.84;4937864;28;20067;-75
2022/02/04 09:04:16;;;;;;;23.90;17.05;;;;;;;7.90;60.88;99586.13;4991988;28;20855;-76
2022/02/04 09:06:50;;;;;;;29.88;17.02;;;;;;;8.00;60.66;99580.09;5047262;28;20037;-78
2022/02/04 09:09:29;;;;;;;26.02;17.98;;;;;;;8.10;60.41;99582.06;5051636;28;20091;-81
2022/02/04 09:12:06;;;;;;;26.13;17.13;;;;;;;8.13;60.45;99580.03;5092906;28;20098;-80
2022/02/04 09:17:33;;;;;;;28.50;17.02;;;;;;;8.27;60.27;99563.25;5092414;28;20124;-74
2022/02/04 09:20:08;;;;;;;28.45;17.48;;;;;;;8.29;60.24;99563.16;5089612;28;20052;-73
2022/02/04 09:22:43;;;;;;;26.48;16.65;;;;;;;8.31;60.24;99575.22;5109278;28;20036;-75
2022/02/04 09:25:10;;;;;;;28.90;16.38;;;;;;;8.41;60.06;99570.97;5121661;28;20044;-73
2022/02/04 09:27:41;;;;;;;26.70;14.60;;;;;;;8.43;60.36;99563.00;5116964;28;20040;-74
2022/02/04 09:30:11;;;;;;;26.40;16.48;;;;;;;8.49;60.09;99565.16;5114939;28;20054;-73
2022/02/04 09:32:39;;;;;;;27.05;17.35;;;;;;;8.60;59.73;99565.19;5115333;28;20075;-75
2022/02/04 09:35:09;;;;;;;23.33;16.35;;;;;;;8.75;59.59;99568.47;5108103;28;20081;-74
2022/02/04 09:37:36;;;;;;;25.67;17.83;;;;;;;8.79;59.52;99567.28;5106594;28;20150;-76
2022/02/04 09:40:04;;;;;;;24.08;16.25;;;;;;;8.90;59.25;99565.63;5104848;28;20094;-75
2022/02/04 09:42:32;;;;;;;25.58;17.17;;;;;;;8.95;58.90;99564.31;5108103;28;20578;-73
2022/02/04 09:45:02;;;;;;;25.65;16.90;;;;;;;8.95;59.16;99572.22;5117826;28;20135;-78
2022/02/04 09:47:34;;;;;;;29.80;17.63;;;;;;;8.86;59.22;99583.44;5119059;28;20123;-76
2022/02/04 09:50:02;;;;;;;24.13;16.23;;;;;;;8.74;59.03;99579.94;5114902;28;20112;-74
2022/02/04 10:09:34;;;;;;;28.95;14.63;;;;;;;8.79;58.78;99563.81;5104315;28;20172;-74
2022/02/04 10:12:28;;;;;;;25.23;13.05;;;;;;;8.99;58.18;99565.75;5106985;28;20054;-75
2022/02/04 10:15:14;;;;;;;27.08;15.65;;;;;;;9.15;58.22;99560.13;5102335;28;20051;-74
2022/02/04 10:17:58;;;;;;;30.77;16.23;;;;;;;9.22;57.95;99564.91;5099106;28;20593;-75
2022/02/04 10:20:25;;;;;;;25.98;14.98;;;;;;;9.31;57.73;99565.03;5103105;28;20150;-73
2022/02/04 10:22:52;;;;;;;20.52;13.40;;;;;;;9.27;57.55;99563.59;5096735;28;21786;-71
2022/02/04 10:25:19;;;;;;;26.67;16.13;;;;;;;9.19;57.78;99556.28;5084322;28;20516;-75
2022/02/04 10:27:47;;;;;;;24.73;14.75;;;;;;;9.15;57.82;99560.13;5085345;28;20654;-72
2022/02/04 10:30:16;;;;;;;27.75;15.50;;;;;;;9.17;57.87;99546.84;5104770;28;20059;-75
2022/02/04 10:32:47;;;;;;;24.63;13.77;;;;;;;9.22;57.67;99560.50;5105795;28;20050;-74
2022/02/04 10:35:18;;;;;;;31.50;18.15;;;;;;;9.23;57.58;99553.41;5105435;28;20055;-76
2022/02/04 10:38:09;;;;;;;29.15;14.88;;;;;;;9.15;57.88;99554.84;5105465;28;20084;-77
2022/02/04 10:40:45;;;;;;;33.95;16.52;;;;;;;9.15;57.67;99551.41;5106443;28;20043;-73
2022/02/04 10:43:28;;;;;;;31.02;15.68;;;;;;;9.12;57.67;99549.00;5105948;28;20128;-75
2022/02/04 10:46:07;;;;;;;26.02;15.05;;;;;;;9.11;57.59;99547.31;5103370;28;20055;-75
2022/02/04 11:00:08;;;;;;;29.50;17.20;;;;;;;9.08;57.67;99544.94;5042726;28;20053;-79
2022/02/04 11:05:25;;;;;;;26.23;15.65;;;;;;;8.98;57.99;99537.75;5038292;28;20706;-76
2022/02/04 11:35:47;;;;;;;33.92;17.98;;;;;;;8.91;58.11;99518.09;4926084;29;20190;-76
2022/02/04 11:52:45;;;;;;;30.42;19.05;;;;;;;8.85;58.39;99518.56;5060106;28;20122;-77
2022/02/04 11:55:36;;;;;;;36.63;20.45;;;;;;;8.90;58.48;99513.78;5062092;28;20053;-76
2022/02/04 11:58:05;;;;;;;37.83;19.05;;;;;;;8.91;58.37;99515.47;4989681;28;20059;-78
2022/02/04 12:00:44;;;;;;;32.42;17.67;;;;;;;8.93;58.46;99517.97;5042026;28;20049;-78
2022/02/04 12:03:36;;;;;;;30.80;17.98;;;;;;;8.99;58.43;99514.88;5042331;28;20056;-79
2022/02/04 12:06:05;;;;;;;27.25;15.90;;;;;;;9.06;58.03;99515.25;5047121;28;20056;-79
2022/02/04 12:08:34;;;;;;;29.20;16.23;;;;;;;9.00;58.38;99513.88;5025890;28;20041;-77
2022/02/04 12:11:11;;;;;;;25.75;16.63;;;;;;;9.05;58.15;99521.44;5038310;28;20048;-77
2022/02/04 12:14:11;;;;;;;25.42;16.17;;;;;;;9.09;58.19;99507.94;5037610;28;20049;-76
2022/02/04 12:17:04;;;;;;;29.30;16.35;;;;;;;9.10;58.13;99504.31;5039187;28;20041;-77
2022/02/04 12:19:52;;;;;;;21.70;14.18;;;;;;;9.07;58.22;99507.19;5037000;28;20118;-78
2022/02/04 12:22:53;;;;;;;32.95;16.48;;;;;;;9.11;58.16;99508.66;5034821;28;20600;-76
2022/02/04 12:25:53;;;;;;;28.45;14.32;;;;;;;9.05;58.14;99506.47;5041607;28;20059;-78
2022/02/04 12:28:50;;;;;;;29.10;17.15;;;;;;;9.17;57.96;99505.50;5042443;28;20147;-76
2022/02/04 12:31:24;;;;;;;30.30;17.38;;;;;;;9.25;57.72;99501.44;5039615;28;20108;-76
2022/02/04 12:33:55;;;;;;;29.10;17.08;;;;;;;9.10;57.96;99493.78;5044145;28;20187;-75
2022/02/04 12:36:26;;;;;;;25.58;18.17;;;;;;;9.08;58.12;99493.06;5102637;28;20055;-80
2022/02/04 12:38:57;;;;;;;33.03;17.25;;;;;;;9.10;57.98;99492.94;5100857;28;20206;-76
2022/02/04 12:41:28;;;;;;;26.77;18.67;;;;;;;9.12;57.86;99485.75;5099908;28;20048;-77
2022/02/04 12:44:03;;;;;;;33.25;18.38;;;;;;;9.11;57.91;99484.94;5105051;28;20659;-78
2022/02/04 12:46:32;;;;;;;30.17;17.77;;;;;;;9.06;58.11;99489.72;5096261;28;20040;-78
2022/02/04 12:49:02;;;;;;;28.52;16.80;;;;;;;8.96;58.02;99486.13;5101677;28;20047;-76
2022/02/04 12:51:50;;;;;;;23.05;15.38;;;;;;;8.93;58.20;99483.72;5103239;28;20048;-76
2022/02/04 12:54:28;;;;;;;26.42;16.15;;;;;;;8.95;58.36;99484.47;5100584;28;20039;-77
2022/02/04 13:00:20;;;;;;;32.50;16.88;;;;;;;9.03;57.90;99470.69;5038545;28;20148;-76
2022/02/04 13:03:10;;;;;;;34.20;18.83;;;;;;;9.07;57.97;99472.09;5033546;28;20070;-78
2022/02/04 13:08:42;;;;;;;36.38;20.52;;;;;;;9.12;57.78;99467.31;4979214;28;20051;-75
2022/02/04 13:11:12;;;;;;;27.52;19.38;;;;;;;9.03;58.18;99468.06;4978128;28;20050;-76
2022/02/04 13:13:47;;;;;;;35.83;21.05;;;;;;;9.05;58.41;99466.13;4978779;28;20065;-75
2022/02/04 13:16:16;;;;;;;33.63;21.85;;;;;;;9.08;58.21;99464.09;4977662;28;20050;-74
2022/02/04 13:18:44;;;;;;;37.03;19.38;;;;;;;9.05;58.26;99466.13;4979475;28;20088;-75
2022/02/04 13:21:14;;;;;;;39.70;22.75;;;;;;;9.04;58.34;99464.44;4977702;28;20042;-74
2022/02/04 13:23:41;;;;;;;38.00;23.10;;;;;;;9.05;58.44;99468.75;4977955;28;20054;-76
2022/02/04 13:26:09;;;;;;;44.30;24.83;;;;;;;9.14;58.30;99468.03;4977691;28;20102;-75
2022/02/04 13:28:37;;;;;;;45.47;22.92;;;;;;;9.21;58.22;99461.31;4978759;28;20909;-78
2022/02/04 13:31:07;;;;;;;53.35;30.42;;;;;;;9.24;58.29;99454.97;5010707;28;20120;-76
2022/02/04 13:33:44;;;;;;;50.90;26.55;;;;;;;9.30;58.22;99452.69;5037409;28;20525;-75
2022/02/04 13:36:23;;;;;;;47.85;27.48;;;;;;;9.33;58.15;99452.44;5036677;28;20045;-75
2022/02/04 13:38:57;;;;;;;44.05;24.15;;;;;;;9.33;58.16;99457.72;5038282;28;20052;-76
2022/02/04 13:41:36;;;;;;;37.10;21.00;;;;;;;9.31;58.37;99462.28;5036485;28;20084;-75
2022/02/04 13:44:33;;;;;;;34.33;21.65;;;;;;;9.28;58.29;99456.41;5036699;28;20045;-75
2022/02/04 13:50:07;;;;;;;37.92;22.67;;;;;;;9.15;58.51;99453.91;5079063;28;20131;-74
2022/02/04 13:52:53;;;;;;;44.03;27.05;;;;;;;9.09;58.55;99451.75;5080152;28;20044;-74
2022/02/04 13:55:32;;;;;;;44.20;24.75;;;;;;;9.09;58.67;99447.34;5080906;28;20052;-74
2022/02/04 13:58:22;;;;;;;47.95;26.08;;;;;;;9.04;58.69;99453.91;5079387;28;20138;-74
2022/02/04 14:00:58;;;;;;;40.75;22.98;;;;;;;9.05;58.82;99452.97;5083324;28;20048;-74
2022/02/04 14:03:28;;;;;;;42.10;24.67;;;;;;;9.08;58.80;99448.28;5080554;28;20047;-76
2022/02/04 14:06:03;;;;;;;38.35;22.08;;;;;;;9.09;58.72;99447.34;5080806;28;20044;-75
2022/02/04 14:08:35;;;;;;;41.15;20.35;;;;;;;9.11;58.57;99452.47;5082434;28;20044;-77
2022/02/04 14:11:05;;;;;;;41.67;23.35;;;;;;;9.07;58.75;99453.69;5078688;28;20072;-76
2022/02/04 14:13:33;;;;;;;43.22;23.98;;;;;;;9.06;58.68;99447.56;5080809;28;20048;-75
2022/02/04 14:16:02;;;;;;;47.15;26.85;;;;;;;9.06;58.79;99457.28;5084420;28;20104;-75
2022/02/04 14:18:30;;;;;;;47.83;25.00;;;;;;;9.07;58.81;99445.78;5082824;28;20048;-75
2022/02/04 14:20:59;;;;;;;43.58;22.33;;;;;;;9.10;58.85;99445.53;5081156;28;20132;-74
2022/02/04 14:23:27;;;;;;;43.28;25.88;;;;;;;9.09;58.69;99446.47;5081350;28;20055;-74
2022/02/04 14:25:59;;;;;;;42.63;23.25;;;;;;;9.09;58.86;99443.84;5079751;28;20087;-76
2022/02/04 14:28:37;;;;;;;47.28;24.95;;;;;;;9.07;58.75;99437.88;5081265;28;20082;-73
2022/02/04 14:31:11;;;;;;;44.10;24.25;;;;;;;9.04;58.74;99440.75;5078867;28;20466;-78
2022/02/04 14:36:36;;;;;;;45.15;26.60;;;;;;;8.88;59.25;99449.84;5079602;28;20524;-75
2022/02/04 14:53:05;;;;;;;36.20;22.83;;;;;;;8.61;59.60;99443.16;5078026;28;20178;-75
2022/02/04 14:58:43;;;;;;;35.88;21.05;;;;;;;8.49;59.79;99438.00;5078706;28;20042;-75
2022/02/04 15:01:17;;;;;;;41.08;24.10;;;;;;;8.40;60.05;99442.97;5079639;28;20447;-76
2022/02/04 15:03:54;;;;;;;39.28;21.65;;;;;;;8.40;60.20;99436.88;5079396;28;20041;-74
2022/02/04 15:06:38;;;;;;;35.85;22.08;;;;;;;8.39;60.04;99435.19;5082561;28;20044;-77
2022/02/04 15:09:38;;;;;;;45.05;25.02;;;;;;;8.40;59.94;99432.44;5082064;28;20285;-76
2022/02/04 15:12:06;;;;;;;32.58;21.15;;;;;;;8.37;59.81;99423.94;5078598;28;20044;-76
2022/02/04 15:14:33;;;;;;;39.97;25.40;;;;;;;8.28;60.13;99422.00;5082653;28;20130;-75
2022/02/04 15:17:04;;;;;;;44.67;21.70;;;;;;;8.23;60.25;99420.59;5083977;28;20044;-78
2022/02/04 15:19:33;;;;;;;38.67;22.98;;;;;;;8.17;60.31;99415.78;5084798;28;20407;-75
2022/02/04 15:22:09;;;;;;;46.72;24.92;;;;;;;8.12;60.51;99423.19;5087160;28;20492;-76
2022/02/04 15:24:38;;;;;;;44.03;24.73;;;;;;;8.09;60.52;99430.47;5087595;28;20044;-74
2022/02/04 15:27:07;;;;;;;51.53;25.98;;;;;;;7.97;60.68;99433.06;5086012;28;20113;-74
2022/02/04 15:29:40;;;;;;;46.97;26.13;;;;;;;7.94;60.78;99428.06;5088428;28;20681;-76
2022/02/04 15:32:07;;;;;;;52.17;27.80;;;;;;;7.86;60.97;99427.78;5090850;28;20067;-76
2022/02/04 15:34:35;;;;;;;44.88;24.67;;;;;;;7.83;61.11;99426.22;5088038;28;20082;-76
2022/02/04 15:37:02;;;;;;;34.17;19.73;;;;;;;7.77;61.09;99428.47;5088060;28;20139;-73
2022/02/04 15:39:32;;;;;;;42.92;22.08;;;;;;;7.76;61.10;99429.41;5088690;28;20046;-76
2022/02/04 15:42:09;;;;;;;42.67;24.10;;;;;;;7.80;61.19;99431.69;5099236;28;20331;-72
2022/02/04 15:44:39;;;;;;;47.38;28.70;;;;;;;7.87;60.85;99429.47;5090636;28;20044;-74
2022/02/04 15:47:21;;;;;;;40.00;22.85;;;;;;;7.91;60.99;99424.81;5083509;28;20610;-73
2022/02/04 15:52:47;;;;;;;39.53;22.15;;;;;;;7.92;60.87;99421.22;5088667;28;20044;-74
2022/02/04 15:55:33;;;;;;;43.42;24.95;;;;;;;7.90;60.96;99423.94;5090454;28;20676;-74
2022/02/04 16:03:44;;;;;;;36.33;23.70;;;;;;;7.87;61.04;99413.69;4995559;28;20619;-73
2022/02/04 16:06:16;;;;;;;38.75;25.40;;;;;;;7.79;61.18;99411.59;4997746;28;20501;-76
2022/02/04 16:08:43;;;;;;;38.92;22.27;;;;;;;7.75;61.28;99414.59;5016848;28;20154;-71
2022/02/04 16:11:31;;;;;;;47.42;24.45;;;;;;;7.74;61.44;99411.13;5015296;28;20061;-71
2022/02/04 16:14:12;;;;;;;56.63;26.73;;;;;;;7.72;61.52;99402.50;5017877;28;20057;-71
2022/02/04 16:16:43;;;;;;;47.70;26.65;;;;;;;7.64;61.50;99402.25;5018145;28;20625;-74
2022/02/04 16:19:24;;;;;;;51.88;28.27;;;;;;;7.60;61.79;99398.19;5015472;28;20282;-71
2022/02/04 16:22:07;;;;;;;48.55;26.13;;;;;;;7.62;61.61;99399.72;5015812;28;20045;-74
2022/02/04 16:30:04;;;;;;;38.50;23.25;;;;;;;7.62;61.66;99396.28;5015863;28;20341;-70